Time;durP1;ratioP1;P1;durP2;ratioP2;P2;SDS_P1;SDS_P2;PMS_P1;PMS_P2;Temp;Humidity;BMP_temperature;BMP_pressure;BME280_temperature;BME280_humidity;BME280_pressure;Samples;Min_cycle;Max_cycle;Signal;HPM_P1;HPM_P2
2023/10/06 00:00:46;;;;;;;;;;;;;;;;;;6096742;23;19972;-91
2023/10/06 00:03:14;;;;;;;;;;;;;;;;;;6094617;23;19913;-91
2023/10/06 00:05:40;;;;;;;;;;;;;;;;;;6096497;23;19909;-93
2023/10/06 00:08:16;;;;;;;;;;;;;;;;;;6095805;23;20300;-92
2023/10/06 00:10:44;;;;;;;;;;;;;;;;;;6095714;23;19912;-92
2023/10/06 00:13:12;;;;;;;;;;;;;;;;;;6094559;23;19906;-91
2023/10/06 00:15:38;;;;;;;;;;;;;;;;;;6095463;23;20317;-92
2023/10/06 00:18:07;;;;;;;;;;;;;;;;;;6094524;23;19916;-91
2023/10/06 00:20:46;;;;;;;;;;;;;;;;;;6093753;23;19912;-91
2023/10/06 00:23:14;;;;;;;;;;;;;;;;;;6097897;23;19909;-92
2023/10/06 00:25:51;;;;;;;;;;;;;;;;;;6098969;23;19910;-91
2023/10/06 00:28:21;;;;;;;;;;;;;;;;;;6095796;23;19978;-92
2023/10/06 00:30:48;;;;;;;;;;;;;;;;;;6092733;23;20326;-92
2023/10/06 00:33:14;;;;;;;;;;;;;;;;;;6093732;23;19957;-92
2023/10/06 00:35:40;;;;;;;;;;;;;;;;;;6092308;23;19952;-92
2023/10/06 00:38:16;;;;;;;;;;;;;;;;;;6093454;23;20328;-94
2023/10/06 00:40:46;;;;;;;;;;;;;;;;;;6092218;23;20288;-94
2023/10/06 00:43:16;;;;;;;;;;;;;;;;;;6094085;23;19909;-91
2023/10/06 00:45:44;;;;;;;;;;;;;;;;;;6093180;23;19921;-92
2023/10/06 00:48:16;;;;;;;;;;;;;;;;;;6094429;23;19961;-92
2023/10/06 00:50:43;;;;;;;;;;;;;;;;;;6091962;23;19905;-92
2023/10/06 00:53:16;;;;;;;;;;;;;;;;;;6093574;23;19909;-92
2023/10/06 00:55:44;;;;;;;;;;;;;;;;;;6094339;23;19981;-92
2023/10/06 00:58:10;;;;;;;;;;;;;;;;;;6093029;23;19917;-92
2023/10/06 01:00:37;;;;;;;;;;;;;;;;;;6094224;23;20402;-93
2023/10/06 01:03:09;;;;;;;;;;;;;;;;;;6092146;23;19965;-93
2023/10/06 01:05:35;;;;;;;;;;;;;;;;;;6093272;23;19988;-92
2023/10/06 01:08:05;;;;;;;;;;;;;;;;;;6093018;23;19933;-92
2023/10/06 01:10:34;;;;;;;;;;;;;;;;;;6092955;23;19910;-93
2023/10/06 01:13:11;;;;;;;;;;;;;;;;;;6091854;23;19913;-92
2023/10/06 01:15:37;;;;;;;;;;;;;;;;;;6093344;23;19910;-92
2023/10/06 01:18:03;;;;;;;;;;;;;;;;;;6092658;23;19956;-92
2023/10/06 01:20:41;;;;;;;;;;;;;;;;;;6093629;23;19940;-92
2023/10/06 01:23:20;;;;;;;;;;;;;;;;;;6094224;23;19910;-92
2023/10/06 01:25:46;;;;;;;;;;;;;;;;;;6094157;23;19984;-92
2023/10/06 01:28:12;;;;;;;;;;;;;;;;;;6093112;23;19936;-92
2023/10/06 01:30:38;;;;;;;;;;;;;;;;;;6092644;23;19909;-92
2023/10/06 01:33:05;;;;;;;;;;;;;;;;;;6092237;23;19910;-93
2023/10/06 01:35:34;;;;;;;;;;;;;;;;;;6091838;23;19909;-92
2023/10/06 01:38:00;;;;;;;;;;;;;;;;;;6092586;23;19918;-92
2023/10/06 01:42:55;;;;;;;;;;;;;;;;;;6103794;23;19920;-93
2023/10/06 01:45:21;;;;;;;;;;;;;;;;;;6092872;23;19917;-93
2023/10/06 01:47:53;;;;;;;;;;;;;;;;;;6091485;23;19912;-91
2023/10/06 01:50:19;;;;;;;;;;;;;;;;;;6091729;23;19948;-91
2023/10/06 01:52:52;;;;;;;;;;;;;;;;;;6093261;23;19905;-91
2023/10/06 01:55:21;;;;;;;;;;;;;;;;;;6092446;23;19914;-92
2023/10/06 01:57:47;;;;;;;;;;;;;;;;;;6093268;23;19928;-94
2023/10/06 02:00:25;;;;;;;;;;;;;;;;;;6092281;23;19929;-92
2023/10/06 02:02:51;;;;;;;;;;;;;;;;;;6093022;23;20324;-93
2023/10/06 02:05:17;;;;;;;;;;;;;;;;;;6093197;23;19922;-93
2023/10/06 02:07:44;;;;;;;;;;;;;;;;;;6091556;23;19913;-94
2023/10/06 02:10:15;;;;;;;;;;;;;;;;;;6093113;23;19909;-92
2023/10/06 02:12:41;;;;;;;;;;;;;;;;;;6091753;23;19972;-92
2023/10/06 02:15:10;;;;;;;;;;;;;;;;;;6090541;23;19969;-92
2023/10/06 02:17:36;;;;;;;;;;;;;;;;;;6091651;23;20630;-91
2023/10/06 02:20:05;;;;;;;;;;;;;;;;;;6091897;23;19909;-92
2023/10/06 02:22:37;;;;;;;;;;;;;;;;;;6092364;23;19912;-92
2023/10/06 02:25:05;;;;;;;;;;;;;;;;;;6091227;23;20330;-92
2023/10/06 02:27:41;;;;;;;;;;;;;;;;;;6091955;23;19931;-93
2023/10/06 02:30:10;;;;;;;;;;;;;;;;;;6092350;23;20404;-92
2023/10/06 02:32:36;;;;;;;;;;;;;;;;;;6091915;23;19909;-93
2023/10/06 02:35:03;;;;;;;;;;;;;;;;;;6092273;23;19921;-93
2023/10/06 02:37:29;;;;;;;;;;;;;;;;;;6091774;23;19957;-92
2023/10/06 02:39:55;;;;;;;;;;;;;;;;;;6090908;23;19984;-91
2023/10/06 02:42:21;;;;;;;;;;;;;;;;;;6092248;23;19960;-91
2023/10/06 02:44:47;;;;;;;;;;;;;;;;;;6090980;23;20000;-91
2023/10/06 02:47:14;;;;;;;;;;;;;;;;;;6092648;23;19956;-92
2023/10/06 02:49:55;;;;;;;;;;;;;;;;;;6089776;23;19916;-92
2023/10/06 02:52:22;;;;;;;;;;;;;;;;;;6090945;23;19944;-92
2023/10/06 02:57:34;;;;;;;;;;;;;;;;;;6102886;23;19996;-92
2023/10/06 03:00:28;;;;;;;;;;;;;;;;;;6092460;23;19951;-91
2023/10/06 03:02:46;;;;;;;;;;;;;;;;;;6093184;23;19916;-91
2023/10/06 03:05:13;;;;;;;;;;;;;;;;;;6091455;23;19909;-92
2023/10/06 03:07:39;;;;;;;;;;;;;;;;;;6091620;23;19919;-91
2023/10/06 03:10:11;;;;;;;;;;;;;;;;;;6092265;23;19940;-91
2023/10/06 03:12:40;;;;;;;;;;;;;;;;;;6090540;23;19932;-90
2023/10/06 03:15:28;;;;;;;;;;;;;;;;;;6091228;23;19913;-90
2023/10/06 03:18:00;;;;;;;;;;;;;;;;;;6091129;23;19905;-91
2023/10/06 03:20:30;;;;;;;;;;;;;;;;;;6092327;23;19916;-91
2023/10/06 03:22:56;;;;;;;;;;;;;;;;;;6092863;23;19913;-91
2023/10/06 03:25:29;;;;;;;;;;;;;;;;;;6093397;23;19910;-91
2023/10/06 03:27:57;;;;;;;;;;;;;;;;;;6091625;23;19944;-92
2023/10/06 03:30:34;;;;;;;;;;;;;;;;;;6091667;23;19905;-91
2023/10/06 03:33:00;;;;;;;;;;;;;;;;;;6091499;23;19940;-91
2023/10/06 03:35:45;;;;;;;;;;;;;;;;;;6093779;23;19909;-91
2023/10/06 03:43:12;;;;;;;;;;;;;;;;;;6105451;23;19916;-90
2023/10/06 03:45:40;;;;;;;;;;;;;;;;;;6095305;23;19943;-90
2023/10/06 03:48:11;;;;;;;;;;;;;;;;;;6069058;23;19924;-91
2023/10/06 03:50:40;;;;;;;;;;;;;;;;;;6070144;23;19933;-91
2023/10/06 03:53:09;;;;;;;;;;;;;;;;;;6069558;23;19909;-91
2023/10/06 03:55:39;;;;;;;;;;;;;;;;;;6070077;23;19913;-91
2023/10/06 03:58:05;;;;;;;;;;;;;;;;;;6094387;23;19905;-90
2023/10/06 04:00:38;;;;;;;;;;;;;;;;;;6070048;23;19909;-91
2023/10/06 04:03:05;;;;;;;;;;;;;;;;;;6067190;23;20362;-90
2023/10/06 04:05:37;;;;;;;;;;;;;;;;;;6070331;23;20355;-90
2023/10/06 04:08:07;;;;;;;;;;;;;;;;;;6069748;23;20044;-93
2023/10/06 04:10:35;;;;;;;;;;;;;;;;;;6069757;23;19916;-93
2023/10/06 04:13:00;;;;;;;;;;;;;;;;;;6068314;23;19954;-93
2023/10/06 04:15:26;;;;;;;;;;;;;;;;;;6070279;23;19913;-93
2023/10/06 04:17:52;;;;;;;;;;;;;;;;;;6068461;23;19909;-91
2023/10/06 04:20:19;;;;;;;;;;;;;;;;;;6069299;23;19959;-91
2023/10/06 04:22:46;;;;;;;;;;;;;;;;;;6068833;23;20134;-90
2023/10/06 04:25:12;;;;;;;;;;;;;;;;;;6069435;23;19932;-90
2023/10/06 04:27:37;;;;;;;;;;;;;;;;;;6069005;23;19957;-90
2023/10/06 04:30:04;;;;;;;;;;;;;;;;;;6069369;23;20392;-90
2023/10/06 04:32:30;;;;;;;;;;;;;;;;;;6067119;23;19921;-92
2023/10/06 04:34:57;;;;;;;;;;;;;;;;;;6068897;23;19909;-92
2023/10/06 04:37:24;;;;;;;;;;;;;;;;;;6068820;23;19909;-90
2023/10/06 04:39:50;;;;;;;;;;;;;;;;;;6069597;23;19937;-91
2023/10/06 04:42:19;;;;;;;;;;;;;;;;;;6068060;23;19905;-91
2023/10/06 04:44:48;;;;;;;;;;;;;;;;;;6071716;23;19905;-90
2023/10/06 04:47:15;;;;;;;;;;;;;;;;;;6090690;23;20208;-90
2023/10/06 04:49:41;;;;;;;;;;;;;;;;;;6093458;23;20344;-90
2023/10/06 04:52:07;;;;;;;;;;;;;;;;;;6094055;23;19909;-90
2023/10/06 04:54:34;;;;;;;;;;;;;;;;;;6093005;23;20367;-90
2023/10/06 04:57:00;;;;;;;;;;;;;;;;;;6093083;23;19924;-90
2023/10/06 04:59:26;;;;;;;;;;;;;;;;;;6093260;23;19906;-92
2023/10/06 05:01:52;;;;;;;;;;;;;;;;;;6093369;23;19937;-91
2023/10/06 05:04:18;;;;;;;;;;;;;;;;;;6093511;23;19913;-92
2023/10/06 05:06:44;;;;;;;;;;;;;;;;;;6092048;23;19909;-92
2023/10/06 05:09:12;;;;;;;;;;;;;;;;;;6091934;23;19939;-92
2023/10/06 05:11:39;;;;;;;;;;;;;;;;;;6091769;23;20323;-90
2023/10/06 05:14:08;;;;;;;;;;;;;;;;;;6092596;23;19905;-91
2023/10/06 05:16:34;;;;;;;;;;;;;;;;;;6091992;23;19919;-92
2023/10/06 05:19:03;;;;;;;;;;;;;;;;;;6092665;23;19916;-92
2023/10/06 05:21:29;;;;;;;;;;;;;;;;;;6093799;23;19909;-92
2023/10/06 05:23:55;;;;;;;;;;;;;;;;;;6094323;23;19957;-91
2023/10/06 05:26:21;;;;;;;;;;;;;;;;;;6093782;23;19906;-92
2023/10/06 05:28:47;;;;;;;;;;;;;;;;;;6093711;23;19912;-91
2023/10/06 05:31:13;;;;;;;;;;;;;;;;;;6091541;23;19912;-92
2023/10/06 05:33:40;;;;;;;;;;;;;;;;;;6092031;23;20347;-90
2023/10/06 05:36:06;;;;;;;;;;;;;;;;;;6090744;23;19990;-90
2023/10/06 05:38:33;;;;;;;;;;;;;;;;;;6090299;23;19913;-90
2023/10/06 05:41:02;;;;;;;;;;;;;;;;;;6092499;23;19917;-89
2023/10/06 05:43:30;;;;;;;;;;;;;;;;;;6091777;23;19932;-90
2023/10/06 05:45:57;;;;;;;;;;;;;;;;;;6092646;23;19949;-89
2023/10/06 05:48:27;;;;;;;;;;;;;;;;;;6092117;23;20337;-91
2023/10/06 05:51:01;;;;;;;;;;;;;;;;;;6092453;23;19941;-89
2023/10/06 05:53:30;;;;;;;;;;;;;;;;;;6092394;23;19980;-89
2023/10/06 05:55:58;;;;;;;;;;;;;;;;;;6091508;23;19913;-90
2023/10/06 05:58:24;;;;;;;;;;;;;;;;;;6091952;23;19948;-89
2023/10/06 06:00:57;;;;;;;;;;;;;;;;;;6091111;23;20343;-89
2023/10/06 06:03:26;;;;;;;;;;;;;;;;;;6092376;23;19916;-89
2023/10/06 06:06:02;;;;;;;;;;;;;;;;;;6089980;23;19929;-89
2023/10/06 06:08:30;;;;;;;;;;;;;;;;;;6090278;23;19909;-89
2023/10/06 06:10:56;;;;;;;;;;;;;;;;;;6091162;23;19945;-88
2023/10/06 06:13:22;;;;;;;;;;;;;;;;;;6090497;23;19917;-88
2023/10/06 06:15:51;;;;;;;;;;;;;;;;;;6090415;23;19917;-89
2023/10/06 06:18:17;;;;;;;;;;;;;;;;;;6092544;23;19909;-89
2023/10/06 06:20:43;;;;;;;;;;;;;;;;;;6090136;23;19905;-89
2023/10/06 06:23:12;;;;;;;;;;;;;;;;;;6092103;23;20152;-88
2023/10/06 06:25:37;;;;;;;;;;;;;;;;;;6091456;23;19933;-89
2023/10/06 06:28:05;;;;;;;;;;;;;;;;;;6090161;23;19912;-89
2023/10/06 06:30:33;;;;;;;;;;;;;;;;;;6092053;23;20358;-89
2023/10/06 06:33:07;;;;;;;;;;;;;;;;;;6091093;23;19909;-90
2023/10/06 06:35:36;;;;;;;;;;;;;;;;;;6092279;23;19921;-90
2023/10/06 06:38:05;;;;;;;;;;;;;;;;;;6092670;23;19986;-91
2023/10/06 06:40:31;;;;;;;;;;;;;;;;;;6092919;23;19982;-91
2023/10/06 06:42:57;;;;;;;;;;;;;;;;;;6092297;23;20349;-92
2023/10/06 06:45:24;;;;;;;;;;;;;;;;;;6090728;23;19917;-91
2023/10/06 06:47:50;;;;;;;;;;;;;;;;;;6067279;23;20498;-91
2023/10/06 06:50:17;;;;;;;;;;;;;;;;;;6068165;23;19941;-91
2023/10/06 06:52:51;;;;;;;;;;;;;;;;;;6067099;23;20167;-92
2023/10/06 06:55:17;;;;;;;;;;;;;;;;;;6068191;23;19919;-91
2023/10/06 06:57:43;;;;;;;;;;;;;;;;;;6067943;23;19910;-91
2023/10/06 07:00:15;;;;;;;;;;;;;;;;;;6068532;23;19909;-91
2023/10/06 07:02:45;;;;;;;;;;;;;;;;;;6066986;23;19909;-91
2023/10/06 07:05:11;;;;;;;;;;;;;;;;;;6069619;23;19912;-91
2023/10/06 07:07:40;;;;;;;;;;;;;;;;;;6092403;23;19916;-91
2023/10/06 07:10:06;;;;;;;;;;;;;;;;;;6093250;23;19937;-92
2023/10/06 07:12:32;;;;;;;;;;;;;;;;;;6067342;23;19980;-91
2023/10/06 07:14:58;;;;;;;;;;;;;;;;;;6068355;23;19940;-91
2023/10/06 07:17:24;;;;;;;;;;;;;;;;;;6067537;23;19981;-92
2023/10/06 07:19:50;;;;;;;;;;;;;;;;;;6067861;23;20149;-91
2023/10/06 07:22:16;;;;;;;;;;;;;;;;;;6068724;23;19905;-92
2023/10/06 07:24:47;;;;;;;;;;;;;;;;;;6068611;23;19920;-91
2023/10/06 07:27:13;;;;;;;;;;;;;;;;;;6069137;23;19913;-91
2023/10/06 07:29:39;;;;;;;;;;;;;;;;;;6067142;23;19913;-91
2023/10/06 07:32:05;;;;;;;;;;;;;;;;;;6067701;23;19917;-91
2023/10/06 07:34:31;;;;;;;;;;;;;;;;;;6067738;23;19913;-93
2023/10/06 07:36:56;;;;;;;;;;;;;;;;;;6068712;23;19910;-92
2023/10/06 07:39:22;;;;;;;;;;;;;;;;;;6066288;23;19909;-90
2023/10/06 07:41:48;;;;;;;;;;;;;;;;;;6066706;23;19905;-89
2023/10/06 07:44:14;;;;;;;;;;;;;;;;;;6068369;23;19948;-88
2023/10/06 07:46:41;;;;;;;;;;;;;;;;;;6079962;23;19921;-88
2023/10/06 07:49:07;;;;;;;;;;;;;;;;;;6092782;23;19910;-89
2023/10/06 07:51:33;;;;;;;;;;;;;;;;;;6092074;23;19955;-89
2023/10/06 07:54:06;;;;;;;;;;;;;;;;;;6093575;23;19905;-90
2023/10/06 07:56:32;;;;;;;;;;;;;;;;;;6090624;23;20229;-89
2023/10/06 07:58:58;;;;;;;;;;;;;;;;;;6090977;23;19917;-89
2023/10/06 08:01:24;;;;;;;;;;;;;;;;;;6090300;23;19909;-90
2023/10/06 08:03:50;;;;;;;;;;;;;;;;;;6092177;23;19916;-88
2023/10/06 08:06:17;;;;;;;;;;;;;;;;;;6091892;23;19909;-90
2023/10/06 08:08:43;;;;;;;;;;;;;;;;;;6091163;23;19909;-89
2023/10/06 08:11:09;;;;;;;;;;;;;;;;;;6090440;23;19912;-90
2023/10/06 08:13:35;;;;;;;;;;;;;;;;;;6092265;23;19906;-89
2023/10/06 08:16:01;;;;;;;;;;;;;;;;;;6093895;23;19910;-89
2023/10/06 08:18:28;;;;;;;;;;;;;;;;;;6098201;23;19929;-90
2023/10/06 08:20:59;;;;;;;;;;;;;;;;;;6095828;23;19909;-89
2023/10/06 08:23:26;;;;;;;;;;;;;;;;;;6098245;23;19933;-89
2023/10/06 08:25:56;;;;;;;;;;;;;;;;;;6099347;23;20323;-89
2023/10/06 08:28:22;;;;;;;;;;;;;;;;;;6099285;23;19906;-89
2023/10/06 08:30:47;;;;;;;;;;;;;;;;;;6101067;23;19905;-90
2023/10/06 08:33:13;;;;;;;;;;;;;;;;;;6098832;23;19911;-90
2023/10/06 08:35:43;;;;;;;;;;;;;;;;;;6098830;23;19915;-90
2023/10/06 08:38:09;;;;;;;;;;;;;;;;;;6098686;23;19910;-89
2023/10/06 08:40:35;;;;;;;;;;;;;;;;;;6098585;23;19917;-90
2023/10/06 08:43:02;;;;;;;;;;;;;;;;;;6100223;23;20045;-89
2023/10/06 08:45:30;;;;;;;;;;;;;;;;;;6102455;23;20248;-90
2023/10/06 08:47:59;;;;;;;;;;;;;;;;;;6072781;23;19924;-88
2023/10/06 08:50:25;;;;;;;;;;;;;;;;;;6075536;23;20107;-89
2023/10/06 08:52:51;;;;;;;;;;;;;;;;;;6076830;23;19909;-90
2023/10/06 08:55:17;;;;;;;;;;;;;;;;;;6073626;23;19913;-89
2023/10/06 08:57:45;;;;;;;;;;;;;;;;;;6069902;23;19909;-88
2023/10/06 09:00:11;;;;;;;;;;;;;;;;;;6096924;23;19909;-89
2023/10/06 09:02:37;;;;;;;;;;;;;;;;;;6097741;23;19928;-88
2023/10/06 09:05:03;;;;;;;;;;;;;;;;;;6073381;23;19948;-89
2023/10/06 09:07:33;;;;;;;;;;;;;;;;;;6074659;23;19916;-90
2023/10/06 09:10:01;;;;;;;;;;;;;;;;;;6096318;23;20595;-89
2023/10/06 09:12:31;;;;;;;;;;;;;;;;;;6076369;23;19915;-91
2023/10/06 09:14:57;;;;;;;;;;;;;;;;;;6073985;23;20331;-89
2023/10/06 09:17:23;;;;;;;;;;;;;;;;;;6075957;23;19930;-89
2023/10/06 09:19:49;;;;;;;;;;;;;;;;;;6073039;23;19909;-89
2023/10/06 09:22:16;;;;;;;;;;;;;;;;;;6076753;23;19913;-89
2023/10/06 09:24:42;;;;;;;;;;;;;;;;;;6076940;23;19909;-89
2023/10/06 09:27:08;;;;;;;;;;;;;;;;;;6081150;23;19893;-88
2023/10/06 09:29:36;;;;;;;;;;;;;;;;;;6075284;23;19913;-88
2023/10/06 09:32:04;;;;;;;;;;;;;;;;;;6101041;23;19917;-88
2023/10/06 09:34:32;;;;;;;;;;;;;;;;;;6071983;23;19920;-90
2023/10/06 09:36:58;;;;;;;;;;;;;;;;;;6072250;23;19920;-90
2023/10/06 09:39:45;;;;;;;;;;;;;;;;;;6073448;23;19980;-89
2023/10/06 09:42:10;;;;;;;;;;;;;;;;;;6070617;23;19983;-90
2023/10/06 09:44:36;;;;;;;;;;;;;;;;;;6071032;23;20103;-90
2023/10/06 09:47:03;;;;;;;;;;;;;;;;;;6089838;23;20344;-90
2023/10/06 09:49:30;;;;;;;;;;;;;;;;;;6096361;23;19905;-90
2023/10/06 09:51:57;;;;;;;;;;;;;;;;;;6102137;23;19993;-90
2023/10/06 09:54:23;;;;;;;;;;;;;;;;;;6097310;23;19913;-89
2023/10/06 09:56:54;;;;;;;;;;;;;;;;;;6095096;23;19905;-89
2023/10/06 09:59:23;;;;;;;;;;;;;;;;;;6093736;23;19916;-89
2023/10/06 10:01:49;;;;;;;;;;;;;;;;;;6091145;23;20339;-90
2023/10/06 10:04:15;;;;;;;;;;;;;;;;;;6094015;23;19909;-90
2023/10/06 10:06:43;;;;;;;;;;;;;;;;;;6093840;23;20150;-91
2023/10/06 10:09:09;;;;;;;;;;;;;;;;;;6092599;23;19909;-90
2023/10/06 10:11:39;;;;;;;;;;;;;;;;;;6091389;23;19984;-90
2023/10/06 10:14:11;;;;;;;;;;;;;;;;;;6098398;23;19905;-92
2023/10/06 10:16:40;;;;;;;;;;;;;;;;;;6098277;23;19917;-90
2023/10/06 10:19:11;;;;;;;;;;;;;;;;;;6097685;23;19909;-90
2023/10/06 10:21:41;;;;;;;;;;;;;;;;;;6097585;23;19914;-90
2023/10/06 10:24:07;;;;;;;;;;;;;;;;;;6103396;23;19915;-90
2023/10/06 10:26:35;;;;;;;;;;;;;;;;;;6104747;23;19944;-90
2023/10/06 10:29:00;;;;;;;;;;;;;;;;;;6105425;23;20221;-89
2023/10/06 10:31:26;;;;;;;;;;;;;;;;;;6104177;23;19901;-89
2023/10/06 10:33:55;;;;;;;;;;;;;;;;;;6107523;23;20182;-91
2023/10/06 10:36:21;;;;;;;;;;;;;;;;;;6107153;23;19909;-90
2023/10/06 10:38:47;;;;;;;;;;;;;;;;;;6108941;23;19916;-91
2023/10/06 10:41:17;;;;;;;;;;;;;;;;;;6107843;23;19916;-89
2023/10/06 10:43:49;;;;;;;;;;;;;;;;;;6107125;23;19941;-90
2023/10/06 10:46:32;;;;;;;;;;;;;;;;;;6110058;23;19988;-91
2023/10/06 10:48:58;;;;;;;;;;;;;;;;;;6106582;23;19908;-91
2023/10/06 10:51:24;;;;;;;;;;;;;;;;;;6108011;23;19890;-88
2023/10/06 10:53:50;;;;;;;;;;;;;;;;;;6105428;23;19909;-90
2023/10/06 10:56:18;;;;;;;;;;;;;;;;;;6100117;23;19917;-91
2023/10/06 10:58:44;;;;;;;;;;;;;;;;;;6104114;23;19906;-89
2023/10/06 11:01:10;;;;;;;;;;;;;;;;;;6104791;23;20402;-89
2023/10/06 11:03:38;;;;;;;;;;;;;;;;;;6103142;23;19983;-88
2023/10/06 11:06:04;;;;;;;;;;;;;;;;;;6105747;23;19901;-90
2023/10/06 11:08:29;;;;;;;;;;;;;;;;;;6101334;23;19933;-92
2023/10/06 11:10:55;;;;;;;;;;;;;;;;;;6097068;23;20209;-92
2023/10/06 11:13:23;;;;;;;;;;;;;;;;;;6096989;23;19909;-92
2023/10/06 11:15:49;;;;;;;;;;;;;;;;;;6098626;23;20321;-91
2023/10/06 11:18:17;;;;;;;;;;;;;;;;;;6101689;23;19934;-90
2023/10/06 11:20:45;;;;;;;;;;;;;;;;;;6100411;23;19912;-89
2023/10/06 11:23:11;;;;;;;;;;;;;;;;;;6100940;23;19913;-90
2023/10/06 11:25:38;;;;;;;;;;;;;;;;;;6101440;23;19953;-90
2023/10/06 11:28:04;;;;;;;;;;;;;;;;;;6102328;23;20054;-90
2023/10/06 11:30:32;;;;;;;;;;;;;;;;;;6101469;23;19923;-90
2023/10/06 11:32:58;;;;;;;;;;;;;;;;;;6100989;23;19920;-90
2023/10/06 11:35:24;;;;;;;;;;;;;;;;;;6100849;23;19909;-90
2023/10/06 11:37:50;;;;;;;;;;;;;;;;;;6098804;23;19923;-90
2023/10/06 11:40:16;;;;;;;;;;;;;;;;;;6101951;23;19912;-91
2023/10/06 11:42:43;;;;;;;;;;;;;;;;;;6100087;23;19909;-90
2023/10/06 11:45:11;;;;;;;;;;;;;;;;;;6099033;23;19905;-90
2023/10/06 11:47:37;;;;;;;;;;;;;;;;;;6100710;23;19917;-90
2023/10/06 11:50:03;;;;;;;;;;;;;;;;;;6107446;23;19905;-91
2023/10/06 11:52:32;;;;;;;;;;;;;;;;;;6107134;23;19912;-90
2023/10/06 11:54:58;;;;;;;;;;;;;;;;;;6102566;23;20346;-90
2023/10/06 11:57:24;;;;;;;;;;;;;;;;;;6102421;23;19909;-91
2023/10/06 11:59:50;;;;;;;;;;;;;;;;;;6099709;23;20016;-90
2023/10/06 12:02:21;;;;;;;;;;;;;;;;;;6103335;23;19933;-90
2023/10/06 12:04:48;;;;;;;;;;;;;;;;;;6102235;23;19910;-90
2023/10/06 12:07:14;;;;;;;;;;;;;;;;;;6099539;23;19905;-91
2023/10/06 12:09:40;;;;;;;;;;;;;;;;;;6099532;23;19931;-91
2023/10/06 12:12:06;;;;;;;;;;;;;;;;;;6101493;23;19953;-91
2023/10/06 12:14:33;;;;;;;;;;;;;;;;;;6100641;23;19913;-91
2023/10/06 12:16:59;;;;;;;;;;;;;;;;;;6097652;23;20268;-91
2023/10/06 12:19:25;;;;;;;;;;;;;;;;;;6092822;23;19961;-91
2023/10/06 12:21:54;;;;;;;;;;;;;;;;;;6093482;23;20320;-90
2023/10/06 12:24:22;;;;;;;;;;;;;;;;;;6091669;23;19916;-90
2023/10/06 12:26:48;;;;;;;;;;;;;;;;;;6092822;23;19934;-89
2023/10/06 12:29:17;;;;;;;;;;;;;;;;;;6092682;23;19980;-88
2023/10/06 12:31:43;;;;;;;;;;;;;;;;;;6089882;23;20320;-90
2023/10/06 12:34:09;;;;;;;;;;;;;;;;;;6092524;23;19913;-89
2023/10/06 12:36:48;;;;;;;;;;;;;;;;;;6091550;23;19913;-90
2023/10/06 12:39:16;;;;;;;;;;;;;;;;;;6094007;23;19909;-89
2023/10/06 12:41:46;;;;;;;;;;;;;;;;;;6092511;23;20403;-89
2023/10/06 12:44:12;;;;;;;;;;;;;;;;;;6092389;23;19978;-89
2023/10/06 12:46:48;;;;;;;;;;;;;;;;;;6094027;23;20321;-89
2023/10/06 12:49:18;;;;;;;;;;;;;;;;;;6095131;23;19940;-89
2023/10/06 12:51:44;;;;;;;;;;;;;;;;;;6069883;23;19916;-89
2023/10/06 12:54:10;;;;;;;;;;;;;;;;;;6070026;23;20332;-89
2023/10/06 12:56:36;;;;;;;;;;;;;;;;;;6070073;23;19917;-90
2023/10/06 12:59:03;;;;;;;;;;;;;;;;;;6070828;23;19909;-89
2023/10/06 13:01:32;;;;;;;;;;;;;;;;;;6069235;23;19910;-88
2023/10/06 13:03:58;;;;;;;;;;;;;;;;;;6070288;23;19937;-89
2023/10/06 13:06:24;;;;;;;;;;;;;;;;;;6071860;23;19905;-88
2023/10/06 13:08:50;;;;;;;;;;;;;;;;;;6072847;23;19916;-89
2023/10/06 13:11:18;;;;;;;;;;;;;;;;;;6073077;23;20246;-89
2023/10/06 13:13:48;;;;;;;;;;;;;;;;;;6073577;23;19909;-89
2023/10/06 13:16:14;;;;;;;;;;;;;;;;;;6077428;23;19913;-89
2023/10/06 13:18:40;;;;;;;;;;;;;;;;;;6074033;23;19949;-89
2023/10/06 13:21:07;;;;;;;;;;;;;;;;;;6072902;23;19989;-88
2023/10/06 13:23:33;;;;;;;;;;;;;;;;;;6072120;23;20396;-89
2023/10/06 13:25:59;;;;;;;;;;;;;;;;;;6083217;23;19906;-89
2023/10/06 13:28:25;;;;;;;;;;;;;;;;;;6081857;23;19913;-90
2023/10/06 13:30:51;;;;;;;;;;;;;;;;;;6079451;23;19980;-90
2023/10/06 13:33:18;;;;;;;;;;;;;;;;;;6080180;23;19909;-91
2023/10/06 13:35:44;;;;;;;;;;;;;;;;;;6077567;23;19914;-89
2023/10/06 13:38:10;;;;;;;;;;;;;;;;;;6078119;23;19906;-88
2023/10/06 13:40:37;;;;;;;;;;;;;;;;;;6077742;23;19912;-89
2023/10/06 13:43:03;;;;;;;;;;;;;;;;;;6079803;23;19945;-88
2023/10/06 13:45:31;;;;;;;;;;;;;;;;;;6078124;23;19953;-89
2023/10/06 13:47:59;;;;;;;;;;;;;;;;;;6091781;23;19920;-87
2023/10/06 13:50:27;;;;;;;;;;;;;;;;;;6098047;23;19910;-88
2023/10/06 13:52:53;;;;;;;;;;;;;;;;;;6097930;23;20171;-88
2023/10/06 13:55:26;;;;;;;;;;;;;;;;;;6097797;23;19916;-88
2023/10/06 13:57:54;;;;;;;;;;;;;;;;;;6094392;23;19909;-89
2023/10/06 14:00:29;;;;;;;;;;;;;;;;;;6098894;23;19913;-88
2023/10/06 14:02:55;;;;;;;;;;;;;;;;;;6093683;23;20347;-88
2023/10/06 14:05:21;;;;;;;;;;;;;;;;;;6089549;23;19910;-88
2023/10/06 14:07:47;;;;;;;;;;;;;;;;;;6089781;23;20406;-88
2023/10/06 14:10:16;;;;;;;;;;;;;;;;;;6090072;23;19909;-88
2023/10/06 14:12:50;;;;;;;;;;;;;;;;;;6089897;23;20316;-89
2023/10/06 14:15:29;;;;;;;;;;;;;;;;;;6091131;23;19913;-89
2023/10/06 14:17:54;;;;;;;;;;;;;;;;;;6090276;23;20250;-89
2023/10/06 14:20:24;;;;;;;;;;;;;;;;;;6090945;23;20324;-89
2023/10/06 14:22:50;;;;;;;;;;;;;;;;;;6091100;23;20020;-89
2023/10/06 14:25:21;;;;;;;;;;;;;;;;;;6091355;23;20287;-89
2023/10/06 14:27:49;;;;;;;;;;;;;;;;;;6090089;23;20399;-89
2023/10/06 14:30:15;;;;;;;;;;;;;;;;;;6091208;23;19917;-89
2023/10/06 14:32:55;;;;;;;;;;;;;;;;;;6089387;23;19914;-88
2023/10/06 14:35:31;;;;;;;;;;;;;;;;;;6091378;23;20303;-89
2023/10/06 14:46:11;;;;;;;;;;;;;;;;;;6092239;23;20363;-89
2023/10/06 14:48:42;;;;;;;;;;;;;;;;;;6090484;23;20336;-88
2023/10/06 14:51:08;;;;;;;;;;;;;;;;;;6089714;23;20324;-89
2023/10/06 14:53:34;;;;;;;;;;;;;;;;;;6089250;23;19913;-87
2023/10/06 14:56:00;;;;;;;;;;;;;;;;;;6089765;23;20249;-88
2023/10/06 14:58:26;;;;;;;;;;;;;;;;;;6090475;23;20332;-88
2023/10/06 15:00:52;;;;;;;;;;;;;;;;;;6089997;23;19916;-88
2023/10/06 15:03:18;;;;;;;;;;;;;;;;;;6090340;23;19909;-88
2023/10/06 15:05:45;;;;;;;;;;;;;;;;;;6090591;23;20229;-89
2023/10/06 15:08:12;;;;;;;;;;;;;;;;;;6089470;23;19929;-89
2023/10/06 15:10:40;;;;;;;;;;;;;;;;;;6091526;23;20366;-88
2023/10/06 15:13:06;;;;;;;;;;;;;;;;;;6088047;23;20337;-88
2023/10/06 15:15:35;;;;;;;;;;;;;;;;;;6089703;23;19994;-89
2023/10/06 15:18:02;;;;;;;;;;;;;;;;;;6087136;23;20452;-89
2023/10/06 15:20:37;;;;;;;;;;;;;;;;;;6090349;23;20092;-90
2023/10/06 15:23:03;;;;;;;;;;;;;;;;;;6090379;23;20110;-88
2023/10/06 15:25:30;;;;;;;;;;;;;;;;;;6090067;23;19910;-89
2023/10/06 15:27:56;;;;;;;;;;;;;;;;;;6090679;23;19985;-87
2023/10/06 15:30:22;;;;;;;;;;;;;;;;;;6088510;23;20411;-88
2023/10/06 15:32:48;;;;;;;;;;;;;;;;;;6091058;23;19955;-89
2023/10/06 15:35:14;;;;;;;;;;;;;;;;;;6094315;23;20262;-88
2023/10/06 15:37:39;;;;;;;;;;;;;;;;;;6092100;23;19912;-89
2023/10/06 15:40:16;;;;;;;;;;;;;;;;;;6092064;23;19911;-92
2023/10/06 15:42:42;;;;;;;;;;;;;;;;;;6091736;23;20499;-89
2023/10/06 15:45:10;;;;;;;;;;;;;;;;;;6092572;23;19905;-88
2023/10/06 15:47:36;;;;;;;;;;;;;;;;;;6090120;23;19940;-89
2023/10/06 15:50:03;;;;;;;;;;;;;;;;;;6092744;23;20312;-90
2023/10/06 15:52:29;;;;;;;;;;;;;;;;;;6091110;23;20358;-87
2023/10/06 15:54:55;;;;;;;;;;;;;;;;;;6090856;23;19913;-89
2023/10/06 15:57:21;;;;;;;;;;;;;;;;;;6092560;23;19984;-89
2023/10/06 15:59:47;;;;;;;;;;;;;;;;;;6092618;23;19906;-89
2023/10/06 16:02:13;;;;;;;;;;;;;;;;;;6091574;23;20501;-89
2023/10/06 16:04:39;;;;;;;;;;;;;;;;;;6093341;23;19944;-89
2023/10/06 16:07:08;;;;;;;;;;;;;;;;;;6094388;23;19909;-89
2023/10/06 16:09:34;;;;;;;;;;;;;;;;;;6093096;23;19936;-89
2023/10/06 16:12:01;;;;;;;;;;;;;;;;;;6092323;23;19909;-89
2023/10/06 16:14:28;;;;;;;;;;;;;;;;;;6090723;23;19998;-88
2023/10/06 16:16:55;;;;;;;;;;;;;;;;;;6093892;23;20372;-88
2023/10/06 16:19:21;;;;;;;;;;;;;;;;;;6092119;23;19909;-88
2023/10/06 16:21:49;;;;;;;;;;;;;;;;;;6092683;23;19909;-88
2023/10/06 16:24:17;;;;;;;;;;;;;;;;;;6090256;23;20336;-88
2023/10/06 16:26:43;;;;;;;;;;;;;;;;;;6091090;23;19909;-88
2023/10/06 16:29:09;;;;;;;;;;;;;;;;;;6090935;23;19932;-87
2023/10/06 16:31:36;;;;;;;;;;;;;;;;;;6091390;23;20374;-88
2023/10/06 16:34:02;;;;;;;;;;;;;;;;;;6090649;23;19917;-88
2023/10/06 16:36:29;;;;;;;;;;;;;;;;;;6092087;23;19909;-88
2023/10/06 16:38:55;;;;;;;;;;;;;;;;;;6092853;23;19992;-89
2023/10/06 16:41:21;;;;;;;;;;;;;;;;;;6091399;23;20248;-90
2023/10/06 16:43:48;;;;;;;;;;;;;;;;;;6092143;23;20025;-90
2023/10/06 16:46:16;;;;;;;;;;;;;;;;;;6092904;23;19917;-90
2023/10/06 16:48:42;;;;;;;;;;;;;;;;;;6091753;23;20454;-90
2023/10/06 16:51:08;;;;;;;;;;;;;;;;;;6093390;23;19958;-90
2023/10/06 16:53:34;;;;;;;;;;;;;;;;;;6093547;23;19929;-90
2023/10/06 16:56:00;;;;;;;;;;;;;;;;;;6093229;23;19944;-89
2023/10/06 16:58:25;;;;;;;;;;;;;;;;;;6092776;23;20388;-90
2023/10/06 17:00:53;;;;;;;;;;;;;;;;;;6094060;23;20285;-90
2023/10/06 17:03:20;;;;;;;;;;;;;;;;;;6091331;23;19984;-90
2023/10/06 17:05:48;;;;;;;;;;;;;;;;;;6091968;23;19991;-89
2023/10/06 17:08:14;;;;;;;;;;;;;;;;;;6093630;23;19925;-91